createdAt,value
2018-03-21T00:00:10.474Z,93.20
2018-03-21T00:02:39.440Z,93.10
2018-03-21T00:05:07.620Z,93.10
2018-03-21T00:07:35.839Z,93.10
2018-03-21T00:10:04.044Z,93.20
2018-03-21T00:12:32.268Z,93.20
2018-03-21T00:15:00.443Z,93.30
2018-03-21T00:17:29.402Z,93.20
2018-03-21T00:19:57.583Z,93.20
2018-03-21T00:22:25.778Z,93.20
2018-03-21T00:24:54.730Z,93.10
2018-03-21T00:27:23.675Z,93.10
2018-03-21T00:29:51.864Z,93.10
2018-03-21T00:32:20.042Z,93.10
2018-03-21T00:34:48.239Z,93.10
2018-03-21T00:37:16.417Z,93.00
2018-03-21T00:39:44.634Z,92.80
2018-03-21T00:42:13.602Z,92.70
2018-03-21T00:44:41.786Z,92.70
2018-03-21T00:47:09.975Z,92.70
2018-03-21T00:49:38.950Z,93.00
2018-03-21T00:52:07.171Z,92.70
2018-03-21T00:54:35.354Z,92.70
2018-03-21T00:57:03.539Z,92.70
2018-03-21T00:59:31.719Z,92.50
2018-03-21T01:01:59.901Z,92.40
2018-03-21T01:04:28.086Z,92.40
2018-03-21T01:06:56.294Z,92.30
2018-03-21T01:09:25.257Z,92.30
2018-03-21T01:11:53.442Z,92.30
2018-03-21T01:14:21.622Z,92.50
2018-03-21T01:16:49.820Z,92.70
2018-03-21T01:19:18.809Z,92.50
2018-03-21T01:21:47.768Z,92.10
2018-03-21T01:24:16.027Z,92.10
2018-03-21T01:26:44.211Z,92.00
2018-03-21T01:29:12.388Z,92.10
2018-03-21T01:31:40.603Z,92.20
2018-03-21T01:34:09.578Z,92.40
2018-03-21T01:36:37.765Z,92.40
2018-03-21T01:39:06.721Z,92.60
2018-03-21T01:41:36.058Z,92.50
2018-03-21T01:44:05.019Z,92.90
2018-03-21T01:46:33.212Z,92.50
2018-03-21T01:49:01.414Z,92.60
2018-03-21T01:51:30.383Z,92.50
2018-03-21T01:53:58.567Z,92.50
2018-03-21T01:56:27.523Z,92.20
2018-03-21T01:58:55.712Z,92.40
2018-03-21T02:01:23.908Z,92.40
2018-03-21T02:03:52.082Z,92.30
2018-03-21T02:06:20.317Z,92.40
2018-03-21T02:08:48.500Z,92.30
2018-03-21T02:11:17.448Z,92.30
2018-03-21T02:13:45.656Z,92.30
2018-03-21T02:16:13.859Z,92.50
2018-03-21T02:18:42.052Z,92.60
2018-03-21T02:21:10.226Z,92.60
2018-03-21T02:23:38.411Z,92.80
2018-03-21T02:26:07.417Z,92.80
2018-03-21T02:28:36.377Z,92.80
2018-03-21T02:31:04.568Z,92.80
2018-03-21T02:33:33.546Z,92.80
2018-03-21T02:36:01.770Z,92.70
2018-03-21T02:38:29.963Z,92.80
2018-03-21T02:40:58.198Z,92.90
2018-03-21T02:43:27.159Z,93.10
2018-03-21T02:45:55.329Z,93.10
2018-03-21T02:48:23.558Z,93.10
2018-03-21T02:50:51.761Z,93.10
2018-03-21T02:53:19.953Z,93.10
2018-03-21T02:55:48.143Z,93.00
2018-03-21T02:58:16.332Z,93.00
2018-03-21T03:00:45.302Z,92.80
2018-03-21T03:03:13.493Z,92.80
2018-03-21T03:05:41.703Z,92.70
2018-03-21T03:08:09.894Z,92.60
2018-03-21T03:10:38.075Z,92.60
2018-03-21T03:13:06.266Z,92.60
2018-03-21T03:15:34.458Z,92.70
2018-03-21T03:18:02.662Z,92.80
2018-03-21T03:20:31.628Z,92.80
2018-03-21T03:22:59.832Z,92.80
2018-03-21T03:25:28.789Z,92.80
2018-03-21T03:27:56.990Z,92.80
2018-03-21T03:30:25.963Z,92.80
2018-03-21T03:32:54.180Z,92.70
2018-03-21T03:35:22.388Z,92.70
2018-03-21T03:37:50.578Z,92.70
2018-03-21T03:40:20.279Z,92.90
2018-03-21T03:42:48.470Z,92.80
2018-03-21T03:45:16.666Z,92.70
2018-03-21T03:47:45.660Z,92.40
2018-03-21T03:50:14.637Z,92.40
2018-03-21T03:52:42.853Z,92.30
2018-03-21T03:55:11.073Z,92.40
2018-03-21T03:57:39.247Z,92.50
2018-03-21T04:00:07.471Z,92.50
2018-03-21T04:02:36.435Z,92.40
2018-03-21T04:05:04.640Z,92.40
2018-03-21T04:07:32.822Z,92.50
2018-03-21T04:10:01.034Z,92.60
2018-03-21T04:12:29.225Z,92.70
2018-03-21T04:14:57.436Z,92.80
2018-03-21T04:17:26.378Z,92.80
2018-03-21T04:19:54.579Z,92.80
2018-03-21T04:22:22.779Z,93.10
2018-03-21T04:24:51.748Z,93.00
2018-03-21T04:27:19.951Z,93.00
2018-03-21T04:29:48.134Z,93.00
2018-03-21T04:32:16.472Z,93.10
2018-03-21T04:34:44.680Z,93.00
2018-03-21T04:37:12.897Z,93.10
2018-03-21T04:39:41.097Z,93.20
2018-03-21T04:42:09.331Z,93.10
2018-03-21T04:44:37.549Z,93.50
2018-03-21T04:47:06.274Z,93.10
2018-03-21T04:49:34.471Z,93.10
2018-03-21T04:52:02.661Z,93.10
2018-03-21T04:54:31.611Z,93.40
2018-03-21T04:56:59.918Z,93.30
2018-03-21T04:59:28.102Z,93.30
2018-03-21T05:01:56.283Z,93.30
2018-03-21T05:04:24.506Z,93.20
2018-03-21T05:06:53.477Z,93.40
2018-03-21T05:09:21.674Z,93.30
2018-03-21T05:11:50.628Z,93.70
2018-03-21T05:14:18.840Z,93.70
2018-03-21T05:16:47.791Z,93.40
2018-03-21T05:19:16.002Z,93.50
2018-03-21T05:21:44.972Z,93.40
2018-03-21T05:24:13.149Z,93.40
2018-03-21T05:26:41.402Z,93.50
2018-03-21T05:29:09.586Z,93.60
2018-03-21T05:31:37.769Z,93.60
2018-03-21T05:34:05.991Z,93.70
2018-03-21T05:36:34.176Z,93.60
2018-03-21T05:39:02.382Z,93.30
2018-03-21T05:41:30.578Z,93.20
2018-03-21T05:43:58.796Z,93.20
2018-03-21T05:46:26.995Z,93.30
2018-03-21T05:48:55.208Z,93.20
2018-03-21T05:51:23.414Z,93.20
2018-03-21T05:53:51.600Z,93.30
2018-03-21T05:56:19.822Z,93.30
2018-03-21T05:58:48.003Z,93.20
2018-03-21T06:01:16.203Z,93.10
2018-03-21T06:03:45.172Z,92.80
2018-03-21T06:06:13.389Z,92.80
2018-03-21T06:08:41.606Z,93.00
2018-03-21T06:11:09.791Z,92.90
2018-03-21T06:13:37.991Z,93.10
2018-03-21T06:16:06.954Z,92.60
2018-03-21T06:18:35.193Z,92.50
2018-03-21T06:21:03.394Z,91.70
2018-03-21T06:23:33.629Z,91.60
2018-03-21T06:26:01.831Z,91.60
2018-03-21T06:28:30.836Z,91.20
2018-03-21T06:30:59.805Z,91.40
2018-03-21T06:33:27.996Z,91.40
2018-03-21T06:35:56.951Z,91.40
2018-03-21T06:38:25.173Z,91.40
2018-03-21T06:40:54.130Z,91.30
2018-03-21T06:43:22.339Z,91.30
2018-03-21T06:45:51.320Z,91.20
2018-03-21T06:48:20.446Z,91.00
2018-03-21T06:50:49.422Z,90.90
2018-03-21T06:53:18.386Z,90.60
2018-03-21T06:55:46.569Z,90.60
2018-03-21T06:58:14.761Z,90.40
2018-03-21T07:00:43.714Z,90.20
2018-03-21T07:03:11.913Z,90.20
2018-03-21T07:05:40.094Z,90.00
2018-03-21T07:08:09.051Z,88.10
2018-03-21T07:10:38.009Z,88.00
2018-03-21T07:13:06.184Z,87.90
2018-03-21T07:15:52.125Z,87.20
2018-03-21T07:18:20.306Z,87.30
2018-03-21T07:20:48.493Z,87.60
2018-03-21T07:23:17.438Z,86.60
2018-03-21T07:25:45.637Z,86.60
2018-03-21T07:28:13.815Z,86.10
2018-03-21T07:30:42.028Z,85.70
2018-03-21T07:33:10.209Z,85.30
2018-03-21T07:35:38.386Z,84.10
2018-03-21T07:38:06.573Z,82.60
2018-03-21T07:40:34.742Z,83.10
2018-03-21T07:43:02.931Z,82.80
2018-03-21T07:45:31.130Z,82.20
2018-03-21T07:47:59.310Z,81.80
2018-03-21T07:50:27.513Z,81.70
2018-03-21T07:52:56.462Z,80.60
2018-03-21T07:55:24.640Z,80.60
2018-03-21T07:57:52.804Z,80.50
2018-03-21T08:00:20.994Z,79.10
2018-03-21T09:24:46.874Z,76.90
2018-03-21T09:27:15.051Z,47.20
2018-03-21T09:29:43.986Z,46.10
2018-03-21T09:32:13.149Z,45.50
2018-03-21T09:34:41.327Z,45.30
2018-03-21T09:37:09.520Z,44.00
2018-03-21T09:39:37.714Z,44.60
2018-03-21T09:42:06.669Z,43.30
2018-03-21T09:44:34.848Z,43.30
2018-03-21T09:47:03.019Z,43.30
2018-03-21T09:49:31.216Z,42.80
2018-03-21T09:51:59.395Z,42.30
2018-03-21T09:54:28.355Z,41.00
2018-03-21T09:56:56.578Z,40.90
2018-03-21T09:59:25.569Z,41.40
2018-03-21T10:01:53.733Z,41.30
2018-03-21T10:04:22.700Z,41.10
2018-03-21T10:06:51.634Z,41.20
2018-03-21T10:09:20.572Z,41.10
2018-03-21T10:11:48.749Z,41.00
2018-03-21T10:14:16.950Z,39.90
2018-03-21T10:16:45.107Z,39.50
2018-03-21T10:19:13.433Z,39.50
2018-03-21T10:21:41.607Z,40.00
2018-03-21T10:24:10.534Z,41.40
2018-03-21T10:26:38.710Z,41.40
2018-03-21T10:29:06.890Z,41.30
2018-03-21T10:31:35.074Z,40.90
2018-03-21T10:34:03.268Z,41.20
2018-03-21T10:36:31.465Z,41.30
2018-03-21T10:39:00.412Z,40.20
2018-03-21T10:41:28.655Z,40.20
2018-03-21T10:43:56.855Z,40.40
2018-03-21T10:46:25.021Z,40.00
2018-03-21T10:48:53.207Z,40.90
2018-03-21T10:51:21.400Z,40.30
2018-03-21T10:53:49.577Z,39.50
2018-03-21T10:56:17.767Z,40.20
2018-03-21T10:58:45.955Z,39.80
2018-03-21T11:01:20.316Z,39.20
2018-03-21T11:03:53.913Z,39.10
2018-03-21T11:06:22.099Z,40.10
2018-03-21T11:08:50.271Z,40.90
2018-03-21T11:11:18.440Z,39.40
2018-03-21T11:13:46.617Z,37.80
2018-03-21T11:16:14.803Z,37.80
2018-03-21T11:18:42.981Z,37.90
2018-03-21T11:21:11.170Z,38.60
2018-03-21T11:23:39.341Z,38.00
2018-03-21T11:26:07.510Z,38.40
2018-03-21T11:28:35.701Z,36.40
2018-03-21T11:31:03.874Z,35.00
2018-03-21T11:33:32.048Z,33.60
2018-03-21T11:36:00.240Z,33.80
2018-03-21T11:38:29.211Z,33.40
2018-03-21T11:40:57.381Z,33.40
2018-03-21T11:43:25.570Z,33.20
2018-03-21T11:45:53.738Z,32.70
2018-03-21T11:48:21.915Z,33.40
2018-03-21T11:50:50.114Z,34.00
2018-03-21T11:53:19.083Z,29.20
2018-03-21T11:55:47.277Z,29.20
2018-03-21T11:58:16.239Z,28.10
2018-03-21T12:00:44.434Z,28.10
2018-03-21T12:03:12.629Z,29.10
2018-03-21T12:05:41.568Z,30.00
2018-03-21T12:08:09.754Z,29.90
2018-03-21T12:10:37.937Z,31.40
2018-03-21T12:13:06.164Z,30.90
2018-03-21T12:15:35.087Z,32.50
2018-03-21T12:18:04.018Z,33.10
2018-03-21T12:20:32.955Z,33.90
2018-03-21T12:23:01.134Z,33.30
2018-03-21T12:25:29.319Z,33.00
2018-03-21T12:27:57.489Z,33.50
2018-03-21T12:30:25.673Z,32.20
2018-03-21T12:32:54.615Z,31.40
2018-03-21T12:35:22.794Z,31.30
2018-03-21T12:37:51.739Z,32.60
2018-03-21T12:40:19.910Z,32.60
2018-03-21T12:42:48.074Z,33.10
2018-03-21T12:45:16.250Z,33.40
2018-03-21T12:47:44.423Z,34.00
2018-03-21T12:50:12.617Z,34.60
2018-03-21T12:52:41.553Z,36.10
2018-03-21T12:55:09.718Z,36.00
2018-03-21T12:57:38.657Z,37.30
2018-03-21T13:00:07.159Z,37.30
2018-03-21T13:02:35.348Z,37.70
2018-03-21T13:05:04.298Z,28.40
2018-03-21T13:07:32.507Z,28.10
2018-03-21T13:10:00.690Z,25.50
2018-03-21T13:12:28.878Z,26.00
2018-03-21T13:14:57.814Z,27.30
2018-03-21T13:17:26.000Z,27.20
2018-03-21T13:19:54.187Z,27.40
2018-03-21T13:22:22.361Z,27.00
2018-03-21T13:24:50.562Z,27.60
2018-03-21T13:27:19.510Z,28.80
2018-03-21T13:29:47.686Z,28.70
2018-03-21T13:32:15.858Z,30.50
2018-03-21T13:34:44.024Z,33.10
2018-03-21T13:37:12.202Z,33.00
2018-03-21T13:39:40.392Z,31.40
2018-03-21T13:42:08.583Z,27.10
2018-03-21T13:44:36.752Z,24.40
2018-03-21T13:47:04.949Z,23.40
2018-03-21T13:49:33.898Z,24.60
2018-03-21T13:52:02.082Z,24.50
2018-03-21T13:54:30.294Z,24.10
2018-03-21T13:56:59.246Z,20.00
2018-03-21T13:59:27.445Z,19.90
2018-03-21T14:01:55.620Z,20.00
2018-03-21T14:04:23.808Z,20.30
2018-03-21T14:06:52.816Z,24.30
2018-03-21T14:09:21.751Z,26.40
2018-03-21T14:11:49.931Z,26.30
2018-03-21T14:14:18.122Z,27.40
2018-03-21T14:16:46.294Z,29.00
2018-03-21T14:19:14.463Z,29.40
2018-03-21T14:21:42.639Z,29.70
2018-03-21T14:24:11.594Z,27.00
2018-03-21T14:26:39.766Z,27.50
2018-03-21T14:29:07.946Z,23.40
2018-03-21T14:31:36.139Z,20.90
2018-03-21T14:34:04.308Z,18.80
2018-03-21T14:36:32.489Z,17.70
2018-03-21T14:39:00.709Z,17.40
2018-03-21T14:41:28.898Z,17.00
2018-03-21T14:43:57.827Z,18.00
2018-03-21T14:46:26.102Z,18.00
2018-03-21T14:48:54.545Z,18.10
2018-03-21T14:51:23.483Z,17.40
2018-03-21T14:53:51.648Z,17.30
2018-03-21T14:56:19.833Z,17.30
2018-03-21T14:58:47.997Z,17.20
2018-03-21T15:01:16.167Z,16.90
2018-03-21T15:03:44.412Z,17.00
2018-03-21T15:06:12.531Z,17.10
2018-03-21T15:08:40.707Z,17.10
2018-03-21T15:11:08.885Z,17.00
2018-03-21T15:13:37.061Z,17.90
2018-03-21T15:16:05.235Z,19.00
2018-03-21T15:18:33.440Z,19.70
2018-03-21T15:21:02.403Z,21.80
2018-03-21T15:23:30.580Z,21.70
2018-03-21T15:25:58.802Z,22.10
2018-03-21T15:28:27.762Z,21.80
2018-03-21T15:30:55.932Z,21.70
2018-03-21T15:33:24.131Z,21.40
2018-03-21T15:35:52.303Z,22.00
2018-03-21T15:38:21.268Z,22.00
2018-03-21T15:40:49.447Z,21.90
2018-03-21T15:43:18.396Z,22.10
2018-03-21T15:45:46.578Z,22.10
2018-03-21T15:48:14.749Z,21.40
2018-03-21T15:50:42.958Z,22.10
2018-03-21T15:53:11.130Z,22.80
2018-03-21T15:55:39.311Z,24.00
2018-03-21T15:58:08.261Z,26.20
2018-03-21T16:00:36.434Z,26.20
2018-03-21T16:03:04.628Z,27.60
2018-03-21T16:05:32.821Z,28.30
2018-03-21T16:08:00.986Z,30.20
2018-03-21T16:10:29.156Z,30.00
2018-03-21T16:12:57.333Z,30.90
2018-03-21T16:15:25.519Z,31.20
2018-03-21T16:17:53.695Z,31.10
2018-03-21T16:20:22.631Z,31.90
2018-03-21T16:22:51.571Z,32.60
2018-03-21T16:25:19.735Z,32.50
2018-03-21T16:27:47.925Z,32.20
2018-03-21T16:30:16.087Z,31.90
2018-03-21T16:32:44.259Z,31.90
2018-03-21T16:35:12.454Z,33.40
2018-03-21T16:37:40.626Z,32.90
2018-03-21T16:40:08.805Z,33.80
2018-03-21T16:42:36.992Z,34.60
2018-03-21T16:45:05.190Z,33.80
2018-03-21T16:47:34.159Z,35.70
2018-03-21T16:50:02.328Z,35.60
2018-03-21T16:52:31.288Z,37.70
2018-03-21T16:54:59.448Z,37.70
2018-03-21T16:57:27.619Z,39.10
2018-03-21T16:59:56.022Z,40.20
2018-03-21T17:02:24.230Z,41.20
2018-03-21T17:04:52.426Z,41.60
2018-03-21T17:07:21.398Z,42.50
2018-03-21T17:09:49.569Z,42.40
2018-03-21T17:12:17.742Z,43.30
2018-03-21T17:14:45.936Z,43.30
2018-03-21T17:17:14.347Z,43.70
2018-03-21T17:19:42.533Z,44.50
2018-03-21T17:22:10.700Z,45.10
2018-03-21T17:24:38.866Z,45.80
2018-03-21T17:27:07.051Z,46.30
2018-03-21T17:29:35.283Z,46.40
2018-03-21T17:32:03.465Z,47.00
2018-03-21T17:34:33.151Z,47.90
2018-03-21T17:37:01.337Z,47.80
2018-03-21T17:39:29.510Z,48.40
2018-03-21T17:41:57.701Z,49.10
2018-03-21T17:44:25.883Z,48.90
2018-03-21T17:46:54.822Z,49.30
2018-03-21T17:49:22.998Z,49.30
2018-03-21T17:51:51.175Z,49.00
2018-03-21T17:54:19.371Z,49.40
2018-03-21T17:56:48.463Z,49.90
2018-03-21T17:59:16.669Z,50.00
2018-03-21T18:01:45.612Z,53.10
2018-03-21T18:04:13.797Z,53.10
2018-03-21T18:06:41.970Z,52.20
2018-03-21T18:09:10.153Z,51.40
2018-03-21T18:11:38.343Z,51.00
2018-03-21T18:14:06.523Z,50.40
2018-03-21T18:16:34.809Z,49.70
2018-03-21T18:19:03.752Z,48.20
2018-03-21T18:21:31.924Z,48.10
2018-03-21T18:24:00.098Z,48.10
2018-03-21T18:26:28.284Z,47.60
2018-03-21T18:28:56.471Z,48.60
2018-03-21T18:31:24.671Z,48.90
2018-03-21T18:33:52.848Z,49.50
2018-03-21T18:36:21.019Z,49.70
2018-03-21T18:38:49.258Z,49.10
2018-03-21T18:41:17.559Z,48.70
2018-03-21T18:43:45.852Z,48.90
2018-03-21T18:46:14.820Z,49.60
2018-03-21T18:48:43.099Z,49.50
2018-03-21T18:51:11.304Z,49.60
2018-03-21T18:53:40.253Z,49.90
2018-03-21T18:56:08.469Z,49.80
2018-03-21T18:58:37.409Z,51.60
2018-03-21T19:01:05.797Z,51.60
2018-03-21T19:03:35.020Z,51.60
2018-03-21T19:06:03.220Z,51.50
2018-03-21T19:08:32.226Z,52.10
2018-03-21T19:11:01.177Z,52.70
2018-03-21T19:13:29.607Z,52.70
2018-03-21T19:15:59.019Z,53.10
2018-03-21T19:18:28.020Z,53.70
2018-03-21T19:20:56.197Z,54.00
2018-03-21T19:23:24.387Z,54.40
2018-03-21T19:25:52.563Z,55.40
2018-03-21T19:28:20.783Z,57.40
2018-03-21T19:30:49.731Z,59.30
2018-03-21T19:33:17.914Z,59.30
2018-03-21T19:35:46.123Z,58.80
2018-03-21T19:38:15.092Z,59.10
2018-03-21T19:40:43.787Z,59.00
2018-03-21T19:43:12.317Z,58.90
2018-03-21T19:45:40.534Z,59.40
2018-03-21T19:48:08.766Z,61.00
2018-03-21T19:50:36.972Z,62.70
2018-03-21T19:53:05.260Z,63.50
2018-03-21T19:55:33.756Z,64.20
2018-03-21T19:58:02.130Z,64.70
2018-03-21T20:00:30.322Z,65.10
2018-03-21T20:02:59.280Z,66.30
2018-03-21T20:05:27.501Z,66.20
2018-03-21T20:07:55.717Z,67.20
2018-03-21T20:10:23.886Z,68.00
2018-03-21T20:12:52.100Z,71.60
2018-03-21T20:15:20.295Z,71.40
2018-03-21T20:17:49.261Z,68.00
2018-03-21T20:20:17.487Z,67.90
2018-03-21T20:22:45.673Z,69.10
2018-03-21T20:25:13.867Z,69.50
2018-03-21T20:27:42.036Z,70.00
2018-03-21T20:30:10.225Z,70.60
2018-03-21T20:32:38.451Z,71.00
2018-03-21T20:35:06.631Z,71.40
2018-03-21T20:37:34.810Z,72.50
2018-03-21T20:40:03.000Z,73.10
2018-03-21T20:42:31.188Z,73.50
2018-03-21T20:44:59.394Z,74.20
2018-03-21T20:47:27.592Z,74.80
2018-03-21T20:49:56.540Z,75.10
2018-03-21T20:52:24.828Z,75.20
2018-03-21T20:54:53.005Z,75.20
2018-03-21T20:57:21.202Z,75.80
2018-03-21T20:59:50.144Z,76.30
2018-03-21T21:02:18.316Z,76.10
2018-03-21T21:04:46.495Z,77.00
2018-03-21T21:07:14.668Z,75.90
2018-03-21T21:09:42.840Z,75.90
2018-03-21T21:12:11.033Z,76.10
2018-03-21T21:14:39.209Z,76.20
2018-03-21T21:17:07.419Z,76.30
2018-03-21T21:19:36.369Z,76.50
2018-03-21T21:22:04.544Z,76.40
2018-03-21T21:24:32.723Z,76.80
2018-03-21T21:27:00.894Z,77.00
2018-03-21T21:29:29.062Z,77.90
2018-03-21T21:31:57.244Z,78.30
2018-03-21T21:34:25.418Z,80.00
2018-03-21T21:36:53.594Z,79.50
2018-03-21T21:39:21.779Z,77.80
2018-03-21T21:41:49.956Z,77.50
2018-03-21T21:44:18.170Z,77.50
2018-03-21T21:46:47.125Z,77.50
2018-03-21T21:49:15.308Z,77.40
2018-03-21T21:51:43.502Z,77.40
2018-03-21T21:54:12.451Z,76.90
2018-03-21T21:56:40.732Z,76.80
2018-03-21T21:59:08.961Z,76.90
2018-03-21T22:01:37.163Z,77.80
2018-03-21T22:04:05.366Z,78.20
2018-03-21T22:06:33.558Z,78.80
2018-03-21T22:09:01.759Z,78.90
2018-03-21T22:55:11.946Z,79.10
2018-03-21T22:57:40.147Z,80.80
2018-03-21T23:00:08.348Z,81.10
2018-03-21T23:02:37.300Z,80.40
2018-03-21T23:05:05.520Z,80.30
2018-03-21T23:07:34.492Z,81.00
2018-03-21T23:10:02.686Z,80.90
2018-03-21T23:12:31.666Z,81.20
2018-03-21T23:14:59.855Z,81.20
2018-03-21T23:17:28.822Z,82.70
2018-03-21T23:19:57.028Z,82.70
2018-03-21T23:22:26.004Z,82.50
2018-03-21T23:24:54.266Z,82.40
2018-03-21T23:27:22.416Z,82.50
2018-03-21T23:29:50.604Z,82.40
2018-03-21T23:32:18.795Z,82.40
2018-03-21T23:34:47.014Z,82.60
2018-03-21T23:37:15.220Z,82.40
2018-03-21T23:39:43.407Z,82.60
2018-03-21T23:42:11.612Z,82.70
2018-03-21T23:44:39.804Z,82.40
2018-03-21T23:47:08.034Z,82.70
2018-03-21T23:49:36.228Z,82.50
2018-03-21T23:52:04.421Z,82.70
2018-03-21T23:54:33.373Z,82.70
2018-03-21T23:57:01.560Z,82.60
2018-03-21T23:59:29.727Z,82.60
